Catterick, United Kingdom
Current Conditions -  °F | °C
As of 11:50 AM on Friday 19 Dec 2014 (Local Time) from EGXE Reporting Station
Clear Clear  
Wind Chill: 35°   Ceiling: Unl
Heat Index: 45°   Visibility: 6mi
Dew Point: 32°   Wind: 25mph
Humidity: 61%   Direction: 260°W
Pressure: 29.74"   Gusts: 39mph
Location:  54.38°N, 1.63°W
Report Text: EGXE 191150Z AUTO 26022G34KT 9999 NCD 07/00 Q1007 RERA
Loading
Personal Weather Stations






























Interactive Weather Map New forecast layout! Learn more

10-Day Weather Forecast

Advertisements
Track Severe Weather on mobile